Time;durP1;ratioP1;P1;durP2;ratioP2;P2;SDS_P1;SDS_P2;PMS_P1;PMS_P2;Temp;Humidity;BMP_temperature;BMP_pressure;BME280_temperature;BME280_humidity;BME280_pressure;Samples;Min_cycle;Max_cycle;Signal;HPM_P1;HPM_P2
2023/06/01 00:01:20;;;;;;;4.32;2.28;;;;;;;;;;5053254;28;20045;-62
2023/06/01 00:03:50;;;;;;;2.92;1.98;;;;;;;;;;5053071;28;20053;-63
2023/06/01 00:06:19;;;;;;;3.53;1.95;;;;;;;;;;5044612;28;20045;-61
2023/06/01 00:08:47;;;;;;;4.80;2.85;;;;;;;;;;5053710;28;20414;-63
2023/06/01 00:11:15;;;;;;;7.50;2.47;;;;;;;;;;5046420;28;20516;-62
2023/06/01 00:13:45;;;;;;;3.78;2.40;;;;;;;;;;5046722;28;20049;-62
2023/06/01 00:16:14;;;;;;;2.88;1.95;;;;;;;;;;5046911;28;20052;-63
2023/06/01 00:18:44;;;;;;;3.70;2.20;;;;;;;;;;5053105;28;20636;-61
2023/06/01 00:21:12;;;;;;;4.18;2.15;;;;;;;;;;5053107;28;20088;-61
2023/06/01 00:23:40;;;;;;;4.10;2.50;;;;;;;;;;5053079;28;20492;-63
2023/06/01 00:26:09;;;;;;;6.32;2.45;;;;;;;;;;5048111;28;20076;-63
2023/06/01 00:28:38;;;;;;;6.22;2.72;;;;;;;;;;5052453;28;20554;-62
2023/06/01 00:31:06;;;;;;;5.07;2.00;;;;;;;;;;5044703;28;20053;-61
2023/06/01 00:33:34;;;;;;;4.63;1.92;;;;;;;;;;5048797;28;20041;-61
2023/06/01 00:36:04;;;;;;;3.92;1.88;;;;;;;;;;5050075;28;20079;-61
2023/06/01 00:38:33;;;;;;;4.28;2.00;;;;;;;;;;5052511;28;20048;-62
2023/06/01 00:41:01;;;;;;;3.67;1.77;;;;;;;;;;5052730;28;20103;-61
2023/06/01 00:43:30;;;;;;;4.45;2.00;;;;;;;;;;5046407;28;20048;-61
2023/06/01 00:45:58;;;;;;;5.13;2.13;;;;;;;;;;5041469;28;20051;-62
2023/06/01 00:48:26;;;;;;;6.18;2.38;;;;;;;;;;5051608;28;20472;-61
2023/06/01 00:50:56;;;;;;;4.95;2.40;;;;;;;;;;5052414;28;20583;-62
2023/06/01 00:53:27;;;;;;;6.47;1.75;;;;;;;;;;5052407;28;20086;-61
2023/06/01 00:55:55;;;;;;;3.42;1.95;;;;;;;;;;5043165;28;20103;-61
2023/06/01 00:58:23;;;;;;;2.58;1.70;;;;;;;;;;5052440;28;20095;-62
2023/06/01 01:00:53;;;;;;;3.15;1.95;;;;;;;;;;5052664;28;20045;-61
2023/06/01 01:03:25;;;;;;;7.88;2.55;;;;;;;;;;5079546;22;20056;-63
2023/06/01 01:05:58;;;;;;;6.25;2.17;;;;;;;;;;5076070;28;20052;-63
2023/06/01 01:08:32;;;;;;;6.28;2.15;;;;;;;;;;5075326;28;20049;-63
2023/06/01 01:11:03;;;;;;;4.40;2.23;;;;;;;;;;5075512;28;20112;-63
2023/06/01 01:13:35;;;;;;;4.43;2.55;;;;;;;;;;5074847;28;20436;-63
2023/06/01 01:16:07;;;;;;;4.32;2.20;;;;;;;;;;5074786;28;20432;-64
2023/06/01 01:18:38;;;;;;;4.07;2.05;;;;;;;;;;5075091;28;20049;-63
2023/06/01 01:21:21;;;;;;;7.40;2.13;;;;;;;;;;5074796;28;20044;-63
2023/06/01 01:24:02;;;;;;;8.77;2.43;;;;;;;;;;5075828;28;20114;-63
2023/06/01 01:26:35;;;;;;;4.05;2.10;;;;;;;;;;5075329;28;20114;-63
2023/06/01 01:29:08;;;;;;;4.82;2.08;;;;;;;;;;5074922;28;20447;-64
2023/06/01 01:31:36;;;;;;;6.97;2.20;;;;;;;;;;5075328;28;20044;-62
2023/06/01 01:34:05;;;;;;;6.22;2.10;;;;;;;;;;5071279;28;20064;-63
2023/06/01 01:36:35;;;;;;;2.72;1.90;;;;;;;;;;5071033;28;20509;-63
2023/06/01 01:39:03;;;;;;;4.20;2.38;;;;;;;;;;5071740;28;20041;-63
2023/06/01 01:41:32;;;;;;;3.83;2.20;;;;;;;;;;5072117;28;20106;-62
2023/06/01 01:44:01;;;;;;;5.72;2.47;;;;;;;;;;5071384;28;20558;-63
2023/06/01 01:46:31;;;;;;;7.00;2.75;;;;;;;;;;5070763;28;20130;-63
2023/06/01 01:49:06;;;;;;;6.90;2.53;;;;;;;;;;5071674;28;20520;-63
2023/06/01 01:51:38;;;;;;;5.03;2.13;;;;;;;;;;5071498;28;20556;-62
2023/06/01 01:54:07;;;;;;;3.50;2.17;;;;;;;;;;5071290;28;20118;-63
2023/06/01 01:56:36;;;;;;;4.28;2.15;;;;;;;;;;5057696;28;20060;-64
2023/06/01 01:59:05;;;;;;;3.70;1.92;;;;;;;;;;5070677;28;20116;-63
2023/06/01 02:01:35;;;;;;;5.97;2.58;;;;;;;;;;5070909;28;20044;-63
2023/06/01 02:04:07;;;;;;;3.40;1.98;;;;;;;;;;5071080;28;20056;-63
2023/06/01 02:06:36;;;;;;;6.10;2.20;;;;;;;;;;5070819;28;20121;-63
2023/06/01 02:09:07;;;;;;;4.30;2.05;;;;;;;;;;5070571;28;20129;-64
2023/06/01 02:11:35;;;;;;;5.60;2.17;;;;;;;;;;5070929;28;20048;-63
2023/06/01 02:14:04;;;;;;;3.92;1.95;;;;;;;;;;5070541;28;20072;-64
2023/06/01 02:16:33;;;;;;;4.00;1.45;;;;;;;;;;5070773;28;20110;-62
2023/06/01 02:19:03;;;;;;;4.65;2.67;;;;;;;;;;5070934;28;20099;-62
2023/06/01 02:21:32;;;;;;;4.03;1.95;;;;;;;;;;5070910;28;20050;-63
2023/06/01 02:24:04;;;;;;;3.25;1.95;;;;;;;;;;5070821;28;20046;-64
2023/06/01 02:26:33;;;;;;;7.00;2.22;;;;;;;;;;5070014;28;20045;-62
2023/06/01 02:29:04;;;;;;;6.18;2.33;;;;;;;;;;5071530;28;20083;-60
2023/06/01 02:31:33;;;;;;;4.93;2.58;;;;;;;;;;5070647;28;20140;-62
2023/06/01 02:34:02;;;;;;;4.75;1.95;;;;;;;;;;5070308;28;20037;-63
2023/06/01 02:36:31;;;;;;;7.80;2.55;;;;;;;;;;5070074;28;20080;-62
2023/06/01 02:39:00;;;;;;;6.22;2.17;;;;;;;;;;5070378;28;20044;-62
2023/06/01 02:41:29;;;;;;;4.30;2.25;;;;;;;;;;5070350;28;20103;-62
2023/06/01 02:43:57;;;;;;;5.78;2.25;;;;;;;;;;5070878;28;20044;-62
2023/06/01 02:46:25;;;;;;;4.45;2.30;;;;;;;;;;5069702;28;20056;-62
2023/06/01 02:48:54;;;;;;;8.48;2.20;;;;;;;;;;5070466;28;20099;-64
2023/06/01 02:51:22;;;;;;;6.55;2.45;;;;;;;;;;5070154;28;20052;-63
2023/06/01 02:53:52;;;;;;;6.97;2.30;;;;;;;;;;5070354;28;20067;-62
2023/06/01 02:56:21;;;;;;;7.38;2.15;;;;;;;;;;5070399;28;20060;-62
2023/06/01 02:58:50;;;;;;;5.13;2.75;;;;;;;;;;5070345;28;20159;-63
2023/06/01 03:01:20;;;;;;;6.13;2.40;;;;;;;;;;5070190;28;20045;-62
2023/06/01 03:03:52;;;;;;;2.33;1.77;;;;;;;;;;5069652;28;20507;-63
2023/06/01 03:06:21;;;;;;;7.00;2.70;;;;;;;;;;5061373;28;20408;-62
2023/06/01 03:08:51;;;;;;;3.63;2.00;;;;;;;;;;5070536;28;20052;-62
2023/06/01 03:11:20;;;;;;;4.32;1.95;;;;;;;;;;5070148;28;20493;-64
2023/06/01 03:13:50;;;;;;;7.60;2.50;;;;;;;;;;5069932;28;20485;-63
2023/06/01 03:16:18;;;;;;;3.30;2.20;;;;;;;;;;5069549;28;20049;-62
2023/06/01 03:18:46;;;;;;;6.35;2.40;;;;;;;;;;5072268;28;20520;-62
2023/06/01 03:21:15;;;;;;;4.55;2.50;;;;;;;;;;5077067;28;20044;-63
2023/06/01 03:23:44;;;;;;;3.92;2.30;;;;;;;;;;5076248;28;20053;-63
2023/06/01 03:26:14;;;;;;;7.38;2.70;;;;;;;;;;5075908;28;20052;-63
2023/06/01 03:28:42;;;;;;;6.97;2.80;;;;;;;;;;5076821;28;20057;-62
2023/06/01 03:31:12;;;;;;;5.03;2.17;;;;;;;;;;5076685;28;20075;-61
2023/06/01 03:33:40;;;;;;;3.88;2.35;;;;;;;;;;5076442;28;20535;-63
2023/06/01 03:36:09;;;;;;;6.35;2.45;;;;;;;;;;5076352;28;20468;-63
2023/06/01 03:38:37;;;;;;;6.95;2.20;;;;;;;;;;5076263;28;20552;-62
2023/06/01 03:41:06;;;;;;;6.55;1.95;;;;;;;;;;5076548;28;20080;-62
2023/06/01 03:43:35;;;;;;;2.60;1.83;;;;;;;;;;5076385;28;20052;-62
2023/06/01 03:46:04;;;;;;;5.72;2.70;;;;;;;;;;5076719;28;20056;-63
2023/06/01 03:48:32;;;;;;;4.75;2.13;;;;;;;;;;5063214;28;20130;-66
2023/06/01 03:51:01;;;;;;;3.50;1.98;;;;;;;;;;5076379;28;20409;-63
2023/06/01 03:53:31;;;;;;;3.60;2.55;;;;;;;;;;5076419;28;20098;-63
2023/06/01 03:56:00;;;;;;;3.90;2.20;;;;;;;;;;5075994;28;20492;-62
2023/06/01 03:58:29;;;;;;;3.65;2.05;;;;;;;;;;5076464;28;20101;-62
2023/06/01 04:01:03;;;;;;;5.38;2.40;;;;;;;;;;5076112;28;20067;-62
2023/06/01 04:03:31;;;;;;;3.00;1.95;;;;;;;;;;5076141;28;20056;-63
2023/06/01 04:06:01;;;;;;;4.45;2.25;;;;;;;;;;5075589;28;20048;-62
2023/06/01 04:08:30;;;;;;;4.18;2.25;;;;;;;;;;5076561;28;20455;-62
2023/06/01 04:10:58;;;;;;;2.88;1.83;;;;;;;;;;5076624;28;20612;-62
2023/06/01 04:13:27;;;;;;;3.35;1.90;;;;;;;;;;5076274;28;20049;-63
2023/06/01 04:15:57;;;;;;;3.30;2.25;;;;;;;;;;5074159;28;20048;-63
2023/06/01 04:18:27;;;;;;;4.13;1.95;;;;;;;;;;5076477;28;20128;-62
2023/06/01 04:20:55;;;;;;;5.45;1.85;;;;;;;;;;5076547;28;20551;-62
2023/06/01 04:23:24;;;;;;;3.50;2.20;;;;;;;;;;5076373;28;20075;-62
2023/06/01 04:25:53;;;;;;;4.70;2.58;;;;;;;;;;5075479;28;20525;-63
2023/06/01 04:28:24;;;;;;;4.85;2.28;;;;;;;;;;5076508;28;20486;-63
2023/06/01 04:30:52;;;;;;;4.72;1.77;;;;;;;;;;5073884;28;20075;-62
2023/06/01 04:33:22;;;;;;;7.30;2.42;;;;;;;;;;5072873;28;20098;-65
2023/06/01 04:35:52;;;;;;;4.07;2.17;;;;;;;;;;5072995;28;20056;-69
2023/06/01 04:38:21;;;;;;;5.72;2.35;;;;;;;;;;5072911;28;20080;-63
2023/06/01 04:40:53;;;;;;;3.83;2.20;;;;;;;;;;5073250;28;20040;-62
2023/06/01 04:43:23;;;;;;;8.27;2.47;;;;;;;;;;5072948;28;20102;-62
2023/06/01 04:45:51;;;;;;;2.90;1.95;;;;;;;;;;5072522;28;20053;-62
2023/06/01 04:48:21;;;;;;;3.13;2.00;;;;;;;;;;5072867;28;20045;-63
2023/06/01 04:50:50;;;;;;;4.20;1.88;;;;;;;;;;5072425;28;20409;-62
2023/06/01 04:53:20;;;;;;;3.72;1.90;;;;;;;;;;5071988;28;20658;-62
2023/06/01 04:55:50;;;;;;;3.85;1.98;;;;;;;;;;5072019;28;20553;-62
2023/06/01 04:58:18;;;;;;;4.88;2.47;;;;;;;;;;5072777;28;20052;-63
2023/06/01 05:00:47;;;;;;;4.35;2.10;;;;;;;;;;5072275;28;20492;-63
2023/06/01 05:03:16;;;;;;;2.58;1.70;;;;;;;;;;5071491;28;20570;-63
2023/06/01 05:05:45;;;;;;;4.95;2.10;;;;;;;;;;5071883;28;20079;-62
2023/06/01 05:08:14;;;;;;;4.63;2.40;;;;;;;;;;5072155;28;20530;-63
2023/06/01 05:10:44;;;;;;;5.10;1.88;;;;;;;;;;5072663;28;20128;-63
2023/06/01 05:13:13;;;;;;;6.05;2.40;;;;;;;;;;5072502;28;20095;-63
2023/06/01 05:15:41;;;;;;;6.40;2.20;;;;;;;;;;5071266;28;20673;-62
2023/06/01 05:18:09;;;;;;;2.85;2.20;;;;;;;;;;5071951;28;20497;-63
2023/06/01 05:20:38;;;;;;;2.78;1.60;;;;;;;;;;5072204;28;20048;-62
2023/06/01 05:23:06;;;;;;;2.90;1.77;;;;;;;;;;5072436;28;20481;-62
2023/06/01 05:25:35;;;;;;;3.97;1.70;;;;;;;;;;5071489;28;20110;-63
2023/06/01 05:28:04;;;;;;;5.95;2.38;;;;;;;;;;5071933;28;20562;-63
2023/06/01 05:30:33;;;;;;;5.80;2.30;;;;;;;;;;5071695;28;20060;-63
2023/06/01 05:33:03;;;;;;;5.80;2.75;;;;;;;;;;5071369;28;20123;-64
2023/06/01 05:35:31;;;;;;;7.28;2.85;;;;;;;;;;5071713;28;20056;-62
2023/06/01 05:38:00;;;;;;;4.07;1.83;;;;;;;;;;5072029;28;20049;-62
2023/06/01 05:40:28;;;;;;;3.38;1.98;;;;;;;;;;5071631;28;20098;-63
2023/06/01 05:42:56;;;;;;;11.43;2.85;;;;;;;;;;5071017;28;20098;-64
2023/06/01 05:45:26;;;;;;;5.20;1.77;;;;;;;;;;5071170;28;20045;-63
2023/06/01 05:47:54;;;;;;;4.03;2.13;;;;;;;;;;5071633;28;20045;-63
2023/06/01 05:50:23;;;;;;;6.90;2.15;;;;;;;;;;5071633;28;20044;-62
2023/06/01 05:52:51;;;;;;;3.95;2.20;;;;;;;;;;5071475;28;20119;-62
2023/06/01 05:55:20;;;;;;;4.50;2.05;;;;;;;;;;5070753;28;20041;-64
2023/06/01 05:57:48;;;;;;;8.50;2.08;;;;;;;;;;5070966;28;20505;-63
2023/06/01 06:00:17;;;;;;;1.88;1.65;;;;;;;;;;5071177;28;20056;-62
2023/06/01 06:02:47;;;;;;;6.25;2.25;;;;;;;;;;5071039;28;20053;-62
2023/06/01 06:05:16;;;;;;;15.05;2.92;;;;;;;;;;5070439;28;20047;-64
2023/06/01 06:07:45;;;;;;;3.63;2.13;;;;;;;;;;5071092;28;20063;-63
2023/06/01 06:10:13;;;;;;;3.00;2.03;;;;;;;;;;5070694;28;20466;-63
2023/06/01 06:12:42;;;;;;;6.78;1.85;;;;;;;;;;5071284;28;20460;-62
2023/06/01 06:15:10;;;;;;;6.28;1.77;;;;;;;;;;5070646;28;20068;-63
2023/06/01 06:17:39;;;;;;;7.40;2.30;;;;;;;;;;5071123;28;20078;-64
2023/06/01 06:20:10;;;;;;;5.53;2.28;;;;;;;;;;5070203;28;20480;-65
2023/06/01 06:22:39;;;;;;;4.25;2.22;;;;;;;;;;5058144;28;20071;-63
2023/06/01 06:25:08;;;;;;;5.65;2.13;;;;;;;;;;5070424;28;20060;-63
2023/06/01 06:27:36;;;;;;;9.70;2.38;;;;;;;;;;5071205;28;20052;-63
2023/06/01 06:30:06;;;;;;;6.57;2.28;;;;;;;;;;5070341;28;20094;-64
2023/06/01 06:32:35;;;;;;;4.78;2.42;;;;;;;;;;5070301;28;20059;-64
2023/06/01 06:35:04;;;;;;;4.25;2.17;;;;;;;;;;5069832;28;20055;-63
2023/06/01 06:37:34;;;;;;;3.65;1.83;;;;;;;;;;5071061;28;20060;-65
2023/06/01 06:40:03;;;;;;;4.43;2.53;;;;;;;;;;5070519;28;20477;-64
2023/06/01 06:42:31;;;;;;;6.07;2.55;;;;;;;;;;5070540;28;20052;-65
2023/06/01 06:45:00;;;;;;;6.47;2.63;;;;;;;;;;5069409;28;20045;-64
2023/06/01 06:47:28;;;;;;;3.92;2.20;;;;;;;;;;5070557;28;20482;-64
2023/06/01 06:49:57;;;;;;;5.82;2.38;;;;;;;;;;5070197;28;20049;-64
2023/06/01 06:52:25;;;;;;;4.13;1.65;;;;;;;;;;5070564;28;20049;-64
2023/06/01 06:54:55;;;;;;;6.78;2.35;;;;;;;;;;5069455;28;20055;-65
2023/06/01 06:57:23;;;;;;;3.20;1.98;;;;;;;;;;5070077;28;20378;-63
2023/06/01 06:59:52;;;;;;;3.65;2.45;;;;;;;;;;5070359;28;20045;-63
2023/06/01 07:02:20;;;;;;;3.38;1.98;;;;;;;;;;5067752;28;20049;-64
2023/06/01 07:04:49;;;;;;;4.32;1.75;;;;;;;;;;5070230;28;20048;-64
2023/06/01 07:07:18;;;;;;;6.72;2.40;;;;;;;;;;5070047;28;20048;-63
2023/06/01 07:09:46;;;;;;;6.57;2.28;;;;;;;;;;5069861;28;20544;-65
2023/06/01 07:12:16;;;;;;;2.83;1.77;;;;;;;;;;5069734;28;20048;-65
2023/06/01 07:14:44;;;;;;;9.52;2.50;;;;;;;;;;5069803;28;20463;-65
2023/06/01 07:17:13;;;;;;;3.88;1.92;;;;;;;;;;5070459;28;20520;-64
2023/06/01 07:19:41;;;;;;;4.28;2.53;;;;;;;;;;5070164;28;20049;-66
2023/06/01 07:22:10;;;;;;;4.47;2.40;;;;;;;;;;5069527;28;20554;-65
2023/06/01 07:24:38;;;;;;;6.60;2.40;;;;;;;;;;5069178;28;20052;-65
2023/06/01 07:27:07;;;;;;;3.75;2.22;;;;;;;;;;5070195;28;20102;-65
2023/06/01 07:29:38;;;;;;;4.90;3.05;;;;;;;;;;5070381;28;20048;-66
2023/06/01 07:32:07;;;;;;;6.82;2.20;;;;;;;;;;5069893;28;20068;-64
2023/06/01 07:34:36;;;;;;;7.05;2.22;;;;;;;;;;5069321;28;20043;-64
2023/06/01 07:37:04;;;;;;;5.05;2.30;;;;;;;;;;5069333;28;20056;-65
2023/06/01 07:39:45;;;;;;;7.28;2.20;;;;;;;;;;5069986;28;20516;-65
2023/06/01 07:42:14;;;;;;;4.22;2.58;;;;;;;;;;5069777;28;20044;-65
2023/06/01 07:44:44;;;;;;;5.38;2.35;;;;;;;;;;5068982;28;20052;-66
2023/06/01 07:47:13;;;;;;;4.72;2.05;;;;;;;;;;5069855;28;20094;-65
2023/06/01 07:49:41;;;;;;;7.50;2.63;;;;;;;;;;5069747;28;20053;-64
2023/06/01 07:52:09;;;;;;;6.32;2.58;;;;;;;;;;5069962;28;20049;-64
2023/06/01 07:54:38;;;;;;;5.10;2.03;;;;;;;;;;5069437;28;20052;-64
2023/06/01 07:57:07;;;;;;;6.13;2.45;;;;;;;;;;5069131;28;20804;-65
2023/06/01 07:59:36;;;;;;;4.57;2.15;;;;;;;;;;5067471;28;20052;-65
2023/06/01 08:02:06;;;;;;;4.45;2.40;;;;;;;;;;5069637;28;20044;-65
2023/06/01 08:04:35;;;;;;;6.85;2.58;;;;;;;;;;5069920;28;20048;-63
2023/06/01 08:07:06;;;;;;;5.35;2.50;;;;;;;;;;5072705;28;20048;-66
2023/06/01 08:09:34;;;;;;;5.60;2.50;;;;;;;;;;5073448;28;20052;-66
2023/06/01 08:12:03;;;;;;;4.75;2.75;;;;;;;;;;5073396;28;20074;-67
2023/06/01 08:14:33;;;;;;;4.28;2.25;;;;;;;;;;5073560;28;20072;-65
2023/06/01 08:17:02;;;;;;;3.03;1.80;;;;;;;;;;5073324;28;20088;-66
2023/06/01 08:19:33;;;;;;;4.28;2.38;;;;;;;;;;5073680;28;20574;-66
2023/06/01 08:22:04;;;;;;;5.90;2.60;;;;;;;;;;5073443;28;20044;-65
2023/06/01 08:24:33;;;;;;;3.28;1.83;;;;;;;;;;5072478;28;20398;-66
2023/06/01 08:27:01;;;;;;;4.90;2.53;;;;;;;;;;5072985;28;20101;-63
2023/06/01 08:29:31;;;;;;;5.97;2.22;;;;;;;;;;5073166;28;20444;-63
2023/06/01 08:32:10;;;;;;;5.97;2.47;;;;;;;;;;5072844;28;20084;-65
2023/06/01 08:34:40;;;;;;;4.75;2.28;;;;;;;;;;5071700;28;20062;-68
2023/06/01 08:37:09;;;;;;;4.50;2.05;;;;;;;;;;5072818;28;20053;-64
2023/06/01 08:39:37;;;;;;;4.07;2.30;;;;;;;;;;5072593;28;20112;-64
2023/06/01 08:42:09;;;;;;;6.05;2.60;;;;;;;;;;5073297;28;20526;-63
2023/06/01 08:44:40;;;;;;;7.47;2.95;;;;;;;;;;5072039;28;20045;-65
2023/06/01 08:47:09;;;;;;;3.53;2.42;;;;;;;;;;5072717;28;20056;-64
2023/06/01 08:49:38;;;;;;;9.30;2.70;;;;;;;;;;5072514;28;20053;-66
2023/06/01 08:52:12;;;;;;;5.82;2.40;;;;;;;;;;5073655;28;20090;-65
2023/06/01 08:54:41;;;;;;;3.92;2.58;;;;;;;;;;5071771;28;20052;-66
2023/06/01 08:57:09;;;;;;;4.85;2.55;;;;;;;;;;5072490;28;20501;-65
2023/06/01 08:59:39;;;;;;;5.53;2.60;;;;;;;;;;5072518;28;20049;-64
2023/06/01 09:02:07;;;;;;;6.32;2.40;;;;;;;;;;5072492;28;20114;-65
2023/06/01 09:04:38;;;;;;;3.95;1.83;;;;;;;;;;5072717;28;20450;-65
2023/06/01 09:07:06;;;;;;;4.88;2.67;;;;;;;;;;5071999;28;20057;-65
2023/06/01 09:09:36;;;;;;;5.65;2.88;;;;;;;;;;5072002;28;20451;-66
2023/06/01 09:12:23;;;;;;;4.03;2.55;;;;;;;;;;5072078;28;20067;-66
2023/06/01 09:14:52;;;;;;;5.32;2.85;;;;;;;;;;5072141;28;20052;-66
2023/06/01 09:17:23;;;;;;;3.92;2.38;;;;;;;;;;5071898;28;20101;-65
2023/06/01 09:19:52;;;;;;;4.15;2.50;;;;;;;;;;5072234;28;20060;-66
2023/06/01 09:22:21;;;;;;;7.18;2.60;;;;;;;;;;5071556;28;20059;-65
2023/06/01 09:24:58;;;;;;;3.83;2.13;;;;;;;;;;5071459;28;20068;-65
2023/06/01 09:27:27;;;;;;;4.85;2.25;;;;;;;;;;5059188;28;20055;-64
2023/06/01 09:29:56;;;;;;;6.03;2.60;;;;;;;;;;5072029;28;20516;-65
2023/06/01 09:32:25;;;;;;;3.90;2.22;;;;;;;;;;5071640;28;20459;-66
2023/06/01 09:34:54;;;;;;;6.28;2.55;;;;;;;;;;5070702;28;20507;-66
2023/06/01 09:37:23;;;;;;;6.55;2.70;;;;;;;;;;5071552;28;20060;-67
2023/06/01 09:39:51;;;;;;;10.23;2.80;;;;;;;;;;5071591;28;20420;-66
2023/06/01 09:42:31;;;;;;;3.78;2.30;;;;;;;;;;5071652;28;20493;-66
2023/06/01 09:45:15;;;;;;;4.57;2.45;;;;;;;;;;5070638;28;20563;-67
2023/06/01 09:47:43;;;;;;;4.20;1.92;;;;;;;;;;5071424;28;20485;-65
2023/06/01 09:50:12;;;;;;;6.95;3.10;;;;;;;;;;5071982;28;20049;-68
2023/06/01 09:52:41;;;;;;;4.07;2.60;;;;;;;;;;5071751;28;20073;-69
2023/06/01 09:55:10;;;;;;;5.53;2.17;;;;;;;;;;5070546;28;20169;-66
2023/06/01 09:57:40;;;;;;;3.78;2.67;;;;;;;;;;5070827;28;20087;-67
2023/06/01 10:00:09;;;;;;;3.67;2.40;;;;;;;;;;5071143;28;20052;-66
2023/06/01 10:02:42;;;;;;;4.60;2.28;;;;;;;;;;5071030;28;20390;-65
2023/06/01 10:05:11;;;;;;;7.18;2.55;;;;;;;;;;5070740;28;20040;-67
2023/06/01 10:07:40;;;;;;;5.75;2.00;;;;;;;;;;5071063;28;20101;-66
2023/06/01 10:10:08;;;;;;;4.10;2.15;;;;;;;;;;5070975;28;20098;-66
2023/06/01 10:12:37;;;;;;;3.95;2.20;;;;;;;;;;5070877;28;20077;-66
2023/06/01 10:15:07;;;;;;;5.80;2.28;;;;;;;;;;5070803;28;20052;-66
2023/06/01 10:17:53;;;;;;;4.40;2.38;;;;;;;;;;5059125;28;20551;-66
2023/06/01 10:20:22;;;;;;;6.38;2.70;;;;;;;;;;5070800;28;20452;-68
2023/06/01 10:22:50;;;;;;;2.58;1.80;;;;;;;;;;5070654;28;20121;-66
2023/06/01 10:25:19;;;;;;;5.80;2.05;;;;;;;;;;5070092;28;20048;-66
2023/06/01 10:27:53;;;;;;;3.05;1.70;;;;;;;;;;5070573;28;20095;-66
2023/06/01 10:30:23;;;;;;;2.83;1.58;;;;;;;;;;5070165;28;20052;-68
2023/06/01 10:32:54;;;;;;;4.40;1.88;;;;;;;;;;5070117;28;20080;-66
2023/06/01 10:35:41;;;;;;;4.03;1.98;;;;;;;;;;5069229;28;20064;-66
2023/06/01 10:38:24;;;;;;;5.95;2.38;;;;;;;;;;5069964;28;20048;-66
2023/06/01 10:40:52;;;;;;;3.85;2.03;;;;;;;;;;5067999;28;20060;-68
2023/06/01 10:43:41;;;;;;;4.03;1.70;;;;;;;;;;5070353;28;20106;-67
2023/06/01 10:46:29;;;;;;;5.20;2.13;;;;;;;;;;5069828;28;20076;-64
2023/06/01 10:48:59;;;;;;;4.05;2.10;;;;;;;;;;5070121;28;20052;-64
2023/06/01 10:51:28;;;;;;;2.63;1.88;;;;;;;;;;5070057;28;20056;-64
2023/06/01 10:54:16;;;;;;;2.50;1.70;;;;;;;;;;5069739;28;20068;-67
2023/06/01 10:56:45;;;;;;;5.55;2.25;;;;;;;;;;5057336;28;20045;-67
2023/06/01 10:59:14;;;;;;;6.53;2.10;;;;;;;;;;5069639;28;20049;-66
2023/06/01 11:01:48;;;;;;;4.80;1.90;;;;;;;;;;5070522;28;20044;-65
2023/06/01 11:04:36;;;;;;;3.70;2.00;;;;;;;;;;5069808;28;20083;-65
2023/06/01 11:07:19;;;;;;;5.13;2.22;;;;;;;;;;5062586;28;20076;-66
2023/06/01 11:09:48;;;;;;;3.80;1.75;;;;;;;;;;5069362;28;20076;-67
2023/06/01 11:12:16;;;;;;;5.13;2.35;;;;;;;;;;5069606;28;20133;-66
2023/06/01 11:15:09;;;;;;;3.67;2.13;;;;;;;;;;5069711;28;20086;-66
2023/06/01 11:17:39;;;;;;;2.65;1.65;;;;;;;;;;5070255;28;20051;-66
2023/06/01 11:20:12;;;;;;;4.50;1.90;;;;;;;;;;5070106;28;20068;-67
2023/06/01 11:22:41;;;;;;;3.45;2.00;;;;;;;;;;5070190;28;20060;-66
2023/06/01 11:25:10;;;;;;;4.03;2.38;;;;;;;;;;5069735;28;20064;-66
2023/06/01 11:27:43;;;;;;;4.15;2.10;;;;;;;;;;5069906;28;20040;-65
2023/06/01 11:30:12;;;;;;;3.95;1.90;;;;;;;;;;5069780;28;20087;-67
2023/06/01 11:32:41;;;;;;;3.53;2.40;;;;;;;;;;5070167;28;20041;-67
2023/06/01 11:35:22;;;;;;;4.85;1.65;;;;;;;;;;5069323;28;20048;-67
2023/06/01 11:37:55;;;;;;;3.75;2.25;;;;;;;;;;5070143;28;20052;-68
2023/06/01 11:40:24;;;;;;;3.85;1.92;;;;;;;;;;5071779;28;20533;-66
2023/06/01 11:42:57;;;;;;;3.08;2.00;;;;;;;;;;5073909;28;20045;-66
2023/06/01 11:45:28;;;;;;;2.53;1.80;;;;;;;;;;5073509;28;20052;-66
2023/06/01 11:47:57;;;;;;;5.25;1.98;;;;;;;;;;5073866;28;20459;-66
2023/06/01 11:50:29;;;;;;;3.45;1.92;;;;;;;;;;5074216;28;20461;-68
2023/06/01 11:52:57;;;;;;;3.17;1.98;;;;;;;;;;5073834;28;20044;-67
2023/06/01 11:55:26;;;;;;;3.42;1.95;;;;;;;;;;5073719;28;20044;-67
2023/06/01 11:57:54;;;;;;;2.85;1.80;;;;;;;;;;5068595;28;20131;-67
2023/06/01 12:00:24;;;;;;;2.92;1.80;;;;;;;;;;5074301;28;20063;-66
2023/06/01 12:03:07;;;;;;;4.18;2.20;;;;;;;;;;5074128;28;20049;-66
2023/06/01 12:05:44;;;;;;;4.63;2.28;;;;;;;;;;5073515;28;20469;-67
2023/06/01 12:08:14;;;;;;;2.85;1.85;;;;;;;;;;5074304;28;20083;-67
2023/06/01 12:10:46;;;;;;;2.72;1.88;;;;;;;;;;5073901;28;20102;-67
2023/06/01 12:13:15;;;;;;;4.15;2.30;;;;;;;;;;5073824;28;20044;-66
2023/06/01 12:15:43;;;;;;;5.28;2.20;;;;;;;;;;5073006;28;20072;-66
2023/06/01 12:18:12;;;;;;;6.15;3.00;;;;;;;;;;5073098;28;20044;-68
2023/06/01 12:20:42;;;;;;;3.30;1.70;;;;;;;;;;5072922;28;20048;-68
2023/06/01 12:23:15;;;;;;;4.82;2.40;;;;;;;;;;5073160;28;20056;-66
2023/06/01 12:25:51;;;;;;;7.22;2.22;;;;;;;;;;5072604;28;20067;-67
2023/06/01 12:28:20;;;;;;;5.03;2.05;;;;;;;;;;5072528;28;20041;-68
2023/06/01 12:30:48;;;;;;;7.53;2.65;;;;;;;;;;5072809;28;20109;-66
2023/06/01 12:33:34;;;;;;;4.20;2.03;;;;;;;;;;5072494;28;20447;-67
2023/06/01 12:36:06;;;;;;;5.15;2.15;;;;;;;;;;5072328;28;20048;-66
2023/06/01 12:38:37;;;;;;;9.00;2.40;;;;;;;;;;5072963;28;20048;-67
2023/06/01 12:41:09;;;;;;;4.22;2.08;;;;;;;;;;5072806;28;20044;-67
2023/06/01 12:43:38;;;;;;;4.30;2.20;;;;;;;;;;5072332;28;20125;-66
2023/06/01 12:46:06;;;;;;;6.03;2.15;;;;;;;;;;5072418;28;20126;-68
2023/06/01 12:48:36;;;;;;;5.20;2.25;;;;;;;;;;5060468;28;20044;-67
2023/06/01 12:51:07;;;;;;;3.80;2.10;;;;;;;;;;5071792;28;20601;-67
2023/06/01 12:53:36;;;;;;;3.78;1.92;;;;;;;;;;5072650;28;20053;-67
2023/06/01 12:56:06;;;;;;;3.15;1.90;;;;;;;;;;5071885;28;20135;-67
2023/06/01 12:58:34;;;;;;;3.80;1.90;;;;;;;;;;5068000;28;20054;-67
2023/06/01 13:01:03;;;;;;;2.70;1.90;;;;;;;;;;5072933;28;20056;-66
2023/06/01 13:03:32;;;;;;;6.18;2.03;;;;;;;;;;5071617;28;20056;-67
2023/06/01 13:06:00;;;;;;;2.78;2.25;;;;;;;;;;5071776;28;20379;-67
2023/06/01 13:08:31;;;;;;;3.60;2.03;;;;;;;;;;5072654;28;20045;-66
2023/06/01 13:10:59;;;;;;;3.17;2.00;;;;;;;;;;5072626;28;20044;-66
2023/06/01 13:13:28;;;;;;;4.53;1.85;;;;;;;;;;5071930;28;20493;-66
2023/06/01 13:15:57;;;;;;;2.55;1.83;;;;;;;;;;5071354;28;20558;-67
2023/06/01 13:18:25;;;;;;;4.65;2.28;;;;;;;;;;5072500;28;20494;-67
2023/06/01 13:20:54;;;;;;;8.90;2.50;;;;;;;;;;5071973;28;20072;-66
2023/06/01 13:23:22;;;;;;;9.63;2.22;;;;;;;;;;5072080;28;20094;-67
2023/06/01 13:25:52;;;;;;;4.28;2.28;;;;;;;;;;5062151;28;20127;-67
2023/06/01 13:28:20;;;;;;;6.72;2.50;;;;;;;;;;5071919;28;20079;-67
2023/06/01 13:30:49;;;;;;;5.35;1.60;;;;;;;;;;5071823;28;20054;-66
2023/06/01 13:33:17;;;;;;;4.60;2.30;;;;;;;;;;5071258;28;20040;-66
2023/06/01 13:35:47;;;;;;;4.15;2.22;;;;;;;;;;5071547;28;20056;-66
2023/06/01 13:38:16;;;;;;;3.53;1.77;;;;;;;;;;5071798;28;20052;-66
2023/06/01 13:40:44;;;;;;;7.60;2.00;;;;;;;;;;5071643;28;20052;-66
2023/06/01 13:43:14;;;;;;;2.65;1.80;;;;;;;;;;5071360;28;20102;-65
2023/06/01 13:45:42;;;;;;;3.53;1.92;;;;;;;;;;5070642;28;20051;-65
2023/06/01 13:48:11;;;;;;;3.75;1.95;;;;;;;;;;5071590;28;20052;-65
2023/06/01 13:50:43;;;;;;;3.40;1.73;;;;;;;;;;5072047;28;20057;-65
2023/06/01 13:53:12;;;;;;;3.75;2.10;;;;;;;;;;5071179;28;20079;-65
2023/06/01 13:55:40;;;;;;;3.05;1.90;;;;;;;;;;5071005;28;20060;-65
2023/06/01 13:58:08;;;;;;;4.35;1.92;;;;;;;;;;5071229;28;20087;-65
2023/06/01 14:00:38;;;;;;;3.63;2.08;;;;;;;;;;5071588;28;20053;-65
2023/06/01 14:03:08;;;;;;;5.40;2.25;;;;;;;;;;5057579;28;20057;-66
2023/06/01 14:05:37;;;;;;;2.83;2.05;;;;;;;;;;5070529;28;20052;-66
2023/06/01 14:08:19;;;;;;;7.85;1.70;;;;;;;;;;5070825;28;20508;-65
2023/06/01 14:10:47;;;;;;;4.75;1.80;;;;;;;;;;5070990;28;20060;-65
2023/06/01 14:13:16;;;;;;;3.42;1.83;;;;;;;;;;5070695;28;20098;-65
2023/06/01 14:15:46;;;;;;;2.88;1.80;;;;;;;;;;5070500;28;20053;-66
2023/06/01 14:18:14;;;;;;;2.92;1.88;;;;;;;;;;5070764;28;20157;-66
2023/06/01 14:20:43;;;;;;;6.68;1.88;;;;;;;;;;5070831;28;20040;-66
2023/06/01 14:23:11;;;;;;;3.72;1.73;;;;;;;;;;5070643;28;20087;-66
2023/06/01 14:25:40;;;;;;;4.82;2.08;;;;;;;;;;5070389;28;20044;-65
2023/06/01 14:28:08;;;;;;;2.65;2.05;;;;;;;;;;5070476;28;20055;-66
2023/06/01 14:30:37;;;;;;;2.47;1.50;;;;;;;;;;5070635;28;20052;-66
2023/06/01 14:33:07;;;;;;;3.50;1.42;;;;;;;;;;5069976;28;20052;-66
2023/06/01 14:35:35;;;;;;;3.42;2.03;;;;;;;;;;5057591;28;20118;-65
2023/06/01 14:38:03;;;;;;;4.68;2.10;;;;;;;;;;5070540;28;20098;-65
2023/06/01 14:40:32;;;;;;;4.47;1.92;;;;;;;;;;5070572;28;20041;-66
2023/06/01 14:43:00;;;;;;;4.57;1.80;;;;;;;;;;5070365;28;20056;-66
2023/06/01 14:45:28;;;;;;;3.70;1.75;;;;;;;;;;5069660;28;20105;-66
2023/06/01 14:47:57;;;;;;;3.40;1.80;;;;;;;;;;5069941;28;20051;-66
2023/06/01 14:50:27;;;;;;;4.38;1.73;;;;;;;;;;5070776;28;20080;-65
2023/06/01 14:52:59;;;;;;;2.85;1.80;;;;;;;;;;5070496;28;20048;-65
2023/06/01 14:55:27;;;;;;;6.88;2.05;;;;;;;;;;5069633;28;20056;-66
2023/06/01 14:57:56;;;;;;;2.55;1.63;;;;;;;;;;5070172;28;20044;-66
2023/06/01 15:00:24;;;;;;;3.90;1.80;;;;;;;;;;5069991;28;20074;-66